Time;durP1;ratioP1;P1;durP2;ratioP2;P2;SDS_P1;SDS_P2;PMS_P1;PMS_P2;Temp;Humidity;BMP_temperature;BMP_pressure;BME280_temperature;BME280_humidity;BME280_pressure;Samples;Min_cycle;Max_cycle;Signal;HPM_P1;HPM_P2
2022/03/31 00:00:57;;;;;;;28.33;19.33;;;;;;;5.28;100.00;91204.63;2106692;28;20028;-83
2022/03/31 00:01:59;;;;;;;28.05;19.52;;;;;;;5.27;100.00;91205.81;2107606;28;20499;-81
2022/03/31 00:03:02;;;;;;;28.83;19.90;;;;;;;5.34;100.00;91210.13;2101916;28;20025;-81
2022/03/31 00:04:03;;;;;;;30.80;20.45;;;;;;;5.30;100.00;91207.56;2089080;28;20367;-82
2022/03/31 00:05:04;;;;;;;30.95;21.48;;;;;;;5.28;100.00;91199.34;2089965;28;20039;-85
2022/03/31 00:06:05;;;;;;;46.03;22.85;;;;;;;5.39;100.00;91202.34;2083970;28;20482;-83
2022/03/31 00:07:06;;;;;;;33.38;21.88;;;;;;;5.28;100.00;91204.63;2091251;28;20034;-81
2022/03/31 00:08:13;;;;;;;36.50;22.92;;;;;;;5.28;100.00;91205.38;2090090;28;20413;-83
2022/03/31 00:09:14;;;;;;;38.47;22.50;;;;;;;5.27;100.00;91203.91;2091316;28;20017;-80
2022/03/31 00:10:23;;;;;;;35.13;22.48;;;;;;;5.33;100.00;91206.00;2090129;28;20497;-83
2022/03/31 00:11:24;;;;;;;42.47;22.08;;;;;;;5.31;100.00;91198.47;2099418;28;20543;-81
2022/03/31 00:12:26;;;;;;;33.67;22.45;;;;;;;5.26;100.00;91199.00;2099616;28;20070;-83
2022/03/31 00:13:28;;;;;;;32.95;21.58;;;;;;;5.25;100.00;91202.84;2098686;28;20055;-81
2022/03/31 00:14:29;;;;;;;36.42;22.90;;;;;;;5.22;100.00;91201.03;2106492;28;20114;-82
2022/03/31 00:15:31;;;;;;;32.83;21.08;;;;;;;5.27;100.00;91193.31;2106655;28;20020;-83
2022/03/31 00:16:31;;;;;;;32.40;22.65;;;;;;;5.25;100.00;91200.19;2103602;28;20023;-81
2022/03/31 00:17:33;;;;;;;45.25;22.50;;;;;;;5.27;100.00;91198.59;2098099;28;20107;-82
2022/03/31 00:18:33;;;;;;;48.47;22.90;;;;;;;5.26;100.00;91197.09;2098401;28;20454;-83
2022/03/31 00:19:34;;;;;;;30.40;21.42;;;;;;;5.27;100.00;91200.50;2106329;28;20036;-84
2022/03/31 00:20:36;;;;;;;37.03;23.48;;;;;;;5.24;100.00;91196.78;2104521;28;20401;-81
2022/03/31 00:21:36;;;;;;;33.45;21.60;;;;;;;5.27;100.00;91198.59;2101070;28;20813;-82
2022/03/31 00:22:41;;;;;;;29.30;21.15;;;;;;;5.25;100.00;91197.53;2097775;28;20024;-82
2022/03/31 00:23:42;;;;;;;33.33;20.77;;;;;;;5.36;100.00;91194.53;2099230;28;20029;-82
2022/03/31 00:24:45;;;;;;;30.95;20.83;;;;;;;5.40;100.00;91195.91;2096448;28;20017;-81
2022/03/31 00:25:46;;;;;;;37.35;21.95;;;;;;;5.30;100.00;91194.34;2106473;27;20020;-81
2022/03/31 00:26:47;;;;;;;33.67;21.00;;;;;;;5.27;100.00;91193.31;2114763;28;20043;-80
2022/03/31 00:27:48;;;;;;;36.55;22.20;;;;;;;5.19;100.00;91183.38;2114939;28;20043;-84
2022/03/31 00:28:49;;;;;;;31.40;21.27;;;;;;;5.23;100.00;91186.63;2111433;28;20490;-84
2022/03/31 00:29:50;;;;;;;35.08;23.45;;;;;;;5.20;100.00;91187.50;2098085;28;20046;-86
2022/03/31 00:30:51;;;;;;;37.05;22.67;;;;;;;5.23;100.00;91190.03;2106155;28;20032;-84
2022/03/31 00:31:52;;;;;;;42.03;24.42;;;;;;;5.37;100.00;91188.81;2113812;28;20058;-83
2022/03/31 00:32:53;;;;;;;48.67;24.40;;;;;;;5.26;100.00;91175.16;2114530;28;20078;-84
2022/03/31 00:33:54;;;;;;;37.58;24.13;;;;;;;5.20;100.00;91185.56;2103402;28;20492;-83
2022/03/31 00:34:55;;;;;;;82.35;24.50;;;;;;;5.16;100.00;91186.88;2111273;27;20744;-83
2022/03/31 00:35:56;;;;;;;93.13;26.25;;;;;;;5.05;100.00;91184.56;2108885;28;20039;-83
2022/03/31 00:36:57;;;;;;;84.30;26.02;;;;;;;5.06;100.00;91178.09;2106425;28;20020;-81
2022/03/31 00:37:58;;;;;;;71.65;26.40;;;;;;;5.14;100.00;91178.63;2098086;28;20115;-82
2022/03/31 00:40:21;;;;;;;56.47;25.88;;;;;;;5.17;100.00;91177.75;2107894;27;20404;-82
2022/03/31 00:41:23;;;;;;;49.22;24.20;;;;;;;5.23;100.00;91170.75;2109103;28;20032;-81
2022/03/31 00:42:24;;;;;;;34.78;23.52;;;;;;;5.20;100.00;91171.59;2106689;28;20024;-81
2022/03/31 00:43:25;;;;;;;67.88;26.58;;;;;;;5.14;100.00;91178.63;2108723;28;20035;-81
2022/03/31 00:44:26;;;;;;;49.70;25.88;;;;;;;5.11;100.00;91174.91;2097937;28;20032;-81
2022/03/31 00:45:34;;;;;;;39.38;24.55;;;;;;;5.08;100.00;91172.38;2098169;28;20070;-82
2022/03/31 00:46:35;;;;;;;37.20;24.50;;;;;;;5.11;100.00;91174.16;2099749;28;20107;-83
2022/03/31 00:47:36;;;;;;;112.35;25.65;;;;;;;5.10;100.00;91168.13;2091377;28;20025;-83
2022/03/31 00:48:37;;;;;;;35.03;25.90;;;;;;;5.09;100.00;91171.19;2093063;28;20024;-84
2022/03/31 00:49:38;;;;;;;64.20;25.55;;;;;;;5.02;100.00;91169.53;2119683;27;20583;-81
2022/03/31 00:50:39;;;;;;;69.82;25.10;;;;;;;5.05;100.00;91166.78;2123877;27;20026;-82
2022/03/31 00:51:40;;;;;;;38.90;25.08;;;;;;;5.12;100.00;91168.44;2105951;28;20048;-81
2022/03/31 00:52:42;;;;;;;43.75;25.83;;;;;;;5.09;100.00;91171.19;2094962;28;20025;-80
2022/03/31 00:53:43;;;;;;;44.35;26.13;;;;;;;5.08;100.00;91169.72;2097918;28;20025;-82
2022/03/31 00:54:44;;;;;;;45.55;25.92;;;;;;;5.12;100.00;91157.09;2109032;27;20027;-81
2022/03/31 00:55:56;;;;;;;43.42;26.25;;;;;;;5.09;100.00;91157.97;2110049;28;20091;-82
2022/03/31 00:56:58;;;;;;;52.47;27.10;;;;;;;5.03;100.00;91163.06;2107294;27;20020;-82
2022/03/31 00:57:59;;;;;;;40.85;25.88;;;;;;;5.13;100.00;91158.59;2103219;27;20122;-81
2022/03/31 00:59:04;;;;;;;43.10;25.38;;;;;;;5.08;100.00;91159.13;2095245;28;20028;-81
2022/03/31 01:00:07;;;;;;;60.17;25.15;;;;;;;5.02;100.00;91151.00;2097691;28;20020;-82
2022/03/31 01:01:09;;;;;;;36.75;24.27;;;;;;;5.04;100.00;91157.34;2106787;27;20016;-84
2022/03/31 01:02:12;;;;;;;46.00;25.42;;;;;;;5.06;100.00;91148.97;2106045;28;20020;-82
2022/03/31 01:03:13;;;;;;;40.58;25.45;;;;;;;5.00;100.00;91159.38;2106646;28;20020;-81
2022/03/31 01:04:15;;;;;;;54.38;26.30;;;;;;;4.98;100.00;91164.34;2106432;28;20031;-82
2022/03/31 01:05:16;;;;;;;46.22;25.83;;;;;;;4.97;100.00;91156.84;2105906;28;20678;-83
2022/03/31 01:06:17;;;;;;;38.60;24.95;;;;;;;4.96;100.00;91161.41;2106405;27;20023;-82
2022/03/31 01:07:18;;;;;;;40.08;26.13;;;;;;;5.00;100.00;91153.31;2106116;28;20024;-82
2022/03/31 01:08:21;;;;;;;48.33;25.55;;;;;;;4.95;100.00;91156.53;2099902;28;20048;-81
2022/03/31 01:09:22;;;;;;;59.40;27.63;;;;;;;4.94;100.00;91155.78;2098331;28;20013;-81
2022/03/31 01:10:23;;;;;;;83.15;25.73;;;;;;;4.93;100.00;91153.56;2106588;28;20150;-82
2022/03/31 01:11:24;;;;;;;78.47;29.40;;;;;;;4.86;100.00;91153.78;2114358;28;20022;-84
2022/03/31 01:12:25;;;;;;;53.35;28.52;;;;;;;4.89;100.00;91143.09;2105584;28;20135;-83
2022/03/31 01:13:27;;;;;;;46.80;27.55;;;;;;;4.89;100.00;91148.38;2096539;28;20024;-81
2022/03/31 01:14:34;;;;;;;53.25;28.40;;;;;;;4.90;100.00;91141.19;2106156;28;20027;-83
2022/03/31 01:15:36;;;;;;;117.32;27.80;;;;;;;4.90;100.00;91138.53;2106245;28;20024;-84
2022/03/31 01:16:37;;;;;;;95.05;27.27;;;;;;;4.98;100.00;91139.78;2106336;28;20111;-82
2022/03/31 01:17:40;;;;;;;53.67;26.98;;;;;;;5.08;100.00;91136.03;2106498;28;20380;-81
2022/03/31 01:18:41;;;;;;;101.35;26.98;;;;;;;5.04;100.00;91133.50;2091324;28;20035;-83
2022/03/31 01:19:42;;;;;;;46.60;26.98;;;;;;;5.03;100.00;91132.03;2090547;28;20025;-83
2022/03/31 01:20:43;;;;;;;56.17;27.27;;;;;;;5.00;100.00;91127.63;2089423;28;20029;-83
2022/03/31 01:21:48;;;;;;;89.63;27.98;;;;;;;4.95;100.00;91133.44;2092551;28;20379;-84
2022/03/31 01:22:51;;;;;;;45.38;28.52;;;;;;;4.98;100.00;91134.50;2098530;28;20143;-82
2022/03/31 01:23:54;;;;;;;77.97;25.90;;;;;;;4.96;100.00;91129.63;2106130;28;20462;-84
2022/03/31 01:24:56;;;;;;;100.57;27.25;;;;;;;4.95;100.00;91128.13;2114249;28;20435;-81
2022/03/31 01:26:10;;;;;;;73.43;25.75;;;;;;;4.92;100.00;91128.28;2104144;28;20042;-82
2022/03/31 01:27:17;;;;;;;37.13;25.55;;;;;;;4.94;100.00;91128.56;2093026;28;20128;-83
2022/03/31 01:28:24;;;;;;;50.30;25.90;;;;;;;4.93;100.00;91125.19;2102505;27;20493;-83
2022/03/31 01:29:29;;;;;;;84.18;27.27;;;;;;;4.89;100.00;91119.28;2115071;27;20082;-82
2022/03/31 01:30:31;;;;;;;45.88;27.00;;;;;;;4.98;100.00;91119.34;2098315;28;20099;-82
2022/03/31 01:31:32;;;;;;;51.83;26.58;;;;;;;5.02;100.00;91124.53;2090145;28;20025;-83
2022/03/31 01:32:33;;;;;;;49.42;25.63;;;;;;;5.02;100.00;91116.59;2105895;28;20028;-84
2022/03/31 01:33:34;;;;;;;47.25;23.73;;;;;;;4.97;100.00;91120.53;2106044;28;20016;-83
2022/03/31 01:34:35;;;;;;;58.22;25.83;;;;;;;5.08;100.00;91108.81;2105820;28;20070;-82
2022/03/31 01:35:37;;;;;;;52.95;25.52;;;;;;;4.96;100.00;91118.28;2097610;28;20020;-81
2022/03/31 01:36:38;;;;;;;63.42;25.42;;;;;;;4.92;100.00;91118.41;2106705;28;20020;-84
2022/03/31 01:37:39;;;;;;;43.10;25.98;;;;;;;4.89;100.00;91106.03;2113903;28;20488;-82
2022/03/31 01:38:40;;;;;;;57.60;24.52;;;;;;;4.94;100.00;91116.06;2106169;28;20516;-83
2022/03/31 01:39:42;;;;;;;64.93;25.02;;;;;;;4.86;100.00;91109.53;2106050;28;20951;-82
2022/03/31 01:40:42;;;;;;;50.50;25.58;;;;;;;4.97;100.00;91109.19;2091729;28;20025;-81
2022/03/31 01:41:44;;;;;;;53.70;25.42;;;;;;;5.02;100.00;91108.63;2097716;28;20028;-83
2022/03/31 01:42:46;;;;;;;51.47;25.48;;;;;;;4.93;100.00;91108.56;2097725;28;20042;-81
2022/03/31 01:43:47;;;;;;;40.90;25.95;;;;;;;4.96;100.00;91111.09;2089573;28;20020;-84
2022/03/31 01:44:49;;;;;;;43.40;24.65;;;;;;;4.95;100.00;91109.59;2089394;28;20020;-83
2022/03/31 01:45:52;;;;;;;50.40;23.58;;;;;;;4.85;100.00;91105.41;2089468;28;20080;-81
2022/03/31 01:46:53;;;;;;;65.90;24.38;;;;;;;4.76;100.00;91107.97;2097067;28;20475;-84
2022/03/31 01:47:54;;;;;;;38.42;24.38;;;;;;;4.80;100.00;91108.59;2096929;28;20052;-84
2022/03/31 01:48:55;;;;;;;45.38;23.67;;;;;;;4.83;100.00;91107.00;2092221;28;20040;-83
2022/03/31 01:49:56;;;;;;;44.70;23.95;;;;;;;4.90;100.00;91104.13;2093662;28;20160;-82
2022/03/31 01:50:57;;;;;;;40.20;25.30;;;;;;;4.82;100.00;91108.91;2088993;28;20805;-84
2022/03/31 01:51:58;;;;;;;36.28;23.40;;;;;;;4.90;100.00;91107.50;2089296;28;20025;-82
2022/03/31 01:52:59;;;;;;;54.08;24.92;;;;;;;4.89;100.00;91105.31;2095297;28;20901;-81
2022/03/31 01:54:00;;;;;;;49.40;24.55;;;;;;;4.89;100.00;91107.94;2097457;28;20523;-84
2022/03/31 01:55:01;;;;;;;46.35;24.67;;;;;;;4.79;100.00;91104.50;2105647;28;20047;-82
2022/03/31 01:56:03;;;;;;;43.88;24.65;;;;;;;4.86;100.00;91096.28;2105328;28;20028;-82
2022/03/31 01:57:05;;;;;;;43.67;24.35;;;;;;;4.85;100.00;91096.72;2097970;28;20031;-84
2022/03/31 01:58:07;;;;;;;46.58;25.35;;;;;;;4.83;100.00;91094.53;2104614;28;20522;-81
2022/03/31 01:59:08;;;;;;;40.65;25.33;;;;;;;4.85;100.00;91092.19;2105476;28;20020;-81
2022/03/31 02:00:10;;;;;;;43.13;24.75;;;;;;;4.86;100.00;91092.91;2110183;28;20260;-83
2022/03/31 02:01:10;;;;;;;95.60;25.48;;;;;;;4.77;100.00;91094.31;2106727;28;20467;-82
2022/03/31 02:02:13;;;;;;;53.95;25.95;;;;;;;4.89;100.00;91094.72;2089429;28;20021;-83
2022/03/31 02:03:14;;;;;;;59.13;25.25;;;;;;;4.89;100.00;91095.44;2089522;28;21455;-83
2022/03/31 02:04:17;;;;;;;56.45;24.98;;;;;;;4.84;100.00;91093.34;2105893;28;20115;-83
2022/03/31 02:05:19;;;;;;;46.03;24.77;;;;;;;4.80;100.00;91090.09;2107741;28;20354;-82
2022/03/31 02:06:19;;;;;;;46.65;26.02;;;;;;;4.83;100.00;91089.22;2097456;28;20070;-84
2022/03/31 02:07:20;;;;;;;60.60;24.80;;;;;;;4.82;100.00;91090.38;2113758;28;20064;-81
2022/03/31 02:08:21;;;;;;;70.88;25.80;;;;;;;4.83;100.00;91093.75;2114168;28;20039;-82
2022/03/31 02:09:23;;;;;;;83.78;24.98;;;;;;;4.77;100.00;91094.31;2097519;28;20020;-82
2022/03/31 02:10:27;;;;;;;61.20;24.77;;;;;;;4.72;100.00;91092.22;2086518;28;20087;-82
2022/03/31 02:11:28;;;;;;;70.40;25.17;;;;;;;4.71;100.00;91092.66;2104505;28;20028;-82
2022/03/31 02:12:29;;;;;;;54.30;25.73;;;;;;;4.70;100.00;91088.53;2120652;27;20038;-83
2022/03/31 02:13:30;;;;;;;54.30;25.83;;;;;;;4.75;100.00;91093.28;2109374;28;20505;-81
2022/03/31 02:14:33;;;;;;;42.53;25.65;;;;;;;4.75;100.00;91086.06;2097514;28;20032;-82
2022/03/31 02:15:34;;;;;;;50.50;27.30;;;;;;;4.78;100.00;91084.47;2097456;28;20027;-82
2022/03/31 02:16:35;;;;;;;66.93;28.05;;;;;;;4.80;100.00;91080.22;2113904;28;20054;-81
2022/03/31 02:17:37;;;;;;;48.25;27.50;;;;;;;4.72;100.00;91084.28;2105639;28;20024;-82
2022/03/31 02:18:38;;;;;;;89.82;28.33;;;;;;;4.77;100.00;91083.00;2097461;28;20663;-80
2022/03/31 02:19:39;;;;;;;66.55;27.38;;;;;;;4.88;100.00;91080.75;2097175;28;20024;-82
2022/03/31 02:20:41;;;;;;;56.75;28.13;;;;;;;4.94;100.00;91088.88;2097448;28;20032;-82
2022/03/31 02:21:42;;;;;;;47.70;28.75;;;;;;;4.88;100.00;91080.00;2107317;28;20372;-81
2022/03/31 02:22:43;;;;;;;71.18;26.08;;;;;;;5.00;100.00;91082.59;2114054;28;20027;-82
2022/03/31 02:23:45;;;;;;;54.50;27.48;;;;;;;4.93;100.00;91077.53;2105079;28;20035;-84
2022/03/31 02:24:48;;;;;;;67.13;26.20;;;;;;;4.89;100.00;91081.47;2106043;27;20020;-81
2022/03/31 02:25:49;;;;;;;44.28;27.58;;;;;;;4.85;100.00;91078.94;2114363;28;20016;-81
2022/03/31 02:26:50;;;;;;;45.35;25.70;;;;;;;4.88;100.00;91075.44;2109103;28;20547;-82
2022/03/31 02:27:52;;;;;;;50.92;26.00;;;;;;;4.88;100.00;91075.44;2099331;28;20032;-83
2022/03/31 02:28:53;;;;;;;66.80;26.33;;;;;;;4.88;100.00;91078.09;2105885;28;20070;-81
2022/03/31 02:29:54;;;;;;;67.82;27.90;;;;;;;4.82;100.00;91077.16;2108076;28;20505;-82
2022/03/31 02:30:55;;;;;;;65.88;27.23;;;;;;;4.81;100.00;91070.38;2114078;28;20024;-80
2022/03/31 02:31:56;;;;;;;49.25;27.35;;;;;;;4.75;100.00;91069.47;2107285;28;20054;-85
2022/03/31 02:32:59;;;;;;;83.88;28.55;;;;;;;4.69;100.00;91073.81;2114264;28;20028;-81
2022/03/31 02:34:00;;;;;;;66.57;27.73;;;;;;;4.64;100.00;91069.06;2100944;28;20020;-82
2022/03/31 02:35:02;;;;;;;67.90;28.08;;;;;;;4.68;100.00;91072.31;2110056;28;20031;-81
2022/03/31 02:36:04;;;;;;;64.43;26.70;;;;;;;4.68;100.00;91072.31;2097106;28;20111;-82
2022/03/31 02:37:05;;;;;;;47.05;26.92;;;;;;;4.66;100.00;91070.13;2094945;28;20024;-82
2022/03/31 02:38:07;;;;;;;79.40;26.23;;;;;;;4.71;100.00;91071.47;2104467;28;20472;-83
2022/03/31 02:39:14;;;;;;;40.55;27.10;;;;;;;4.69;100.00;91066.59;2105645;28;20020;-82
2022/03/31 02:40:15;;;;;;;52.95;27.67;;;;;;;4.75;100.00;91064.16;2116385;27;20062;-83
2022/03/31 02:41:15;;;;;;;67.82;26.23;;;;;;;4.74;100.00;91071.38;2108205;28;20468;-82
2022/03/31 02:42:17;;;;;;;106.63;28.08;;;;;;;4.66;100.00;91066.75;2114005;28;20019;-82
2022/03/31 02:43:18;;;;;;;89.20;28.05;;;;;;;4.67;100.00;91060.28;2113123;27;20035;-81
2022/03/31 02:44:19;;;;;;;53.20;26.83;;;;;;;4.71;100.00;91066.19;2111485;28;20035;-82
2022/03/31 02:45:20;;;;;;;105.15;27.38;;;;;;;4.69;100.00;91066.59;2098401;28;20048;-85
2022/03/31 02:46:21;;;;;;;85.38;27.83;;;;;;;4.71;100.00;91058.25;2102423;28;20048;-82
2022/03/31 02:47:22;;;;;;;45.92;27.67;;;;;;;4.75;100.00;91056.97;2105850;28;20052;-81
2022/03/31 02:48:23;;;;;;;95.13;29.15;;;;;;;4.72;100.00;91059.72;2113672;28;20034;-84
2022/03/31 02:49:24;;;;;;;56.45;27.63;;;;;;;4.74;100.00;91058.13;2105410;28;20020;-84
2022/03/31 02:50:25;;;;;;;86.95;27.85;;;;;;;4.74;100.00;91062.66;2105683;28;20135;-81
2022/03/31 02:51:26;;;;;;;47.33;27.30;;;;;;;4.73;100.00;91054.00;2113817;28;20031;-83
2022/03/31 02:55:24;;;;;;;50.25;27.67;;;;;;;4.76;100.00;91057.69;2098337;28;20027;-83
2022/03/31 02:56:30;;;;;;;101.67;26.20;;;;;;;4.71;100.00;91050.31;2116033;28;20369;-81
2022/03/31 02:57:31;;;;;;;51.83;26.15;;;;;;;4.82;100.00;91044.66;2113805;28;20431;-81
2022/03/31 02:58:32;;;;;;;46.40;26.23;;;;;;;4.83;100.00;91052.19;2115073;28;20482;-81
2022/03/31 02:59:34;;;;;;;44.88;27.50;;;;;;;4.87;100.00;91046.75;2105523;28;20074;-82
2022/03/31 03:00:37;;;;;;;44.67;26.55;;;;;;;4.93;100.00;91052.97;2097045;28;20025;-82
2022/03/31 03:01:38;;;;;;;86.70;29.00;;;;;;;4.84;100.00;91048.34;2099721;28;20020;-81
2022/03/31 03:02:39;;;;;;;85.32;31.55;;;;;;;4.79;100.00;91043.63;2105569;28;20405;-82
2022/03/31 03:03:40;;;;;;;69.80;28.02;;;;;;;4.79;100.00;91043.63;2105649;28;20110;-84
2022/03/31 03:04:41;;;;;;;66.22;28.48;;;;;;;4.77;100.00;91043.28;2105467;28;20105;-82
2022/03/31 03:05:42;;;;;;;86.47;29.33;;;;;;;4.82;100.00;91044.66;2097213;28;20074;-82
2022/03/31 03:06:43;;;;;;;60.22;27.20;;;;;;;4.84;100.00;91039.69;2106133;28;20140;-82
2022/03/31 03:07:44;;;;;;;68.65;27.10;;;;;;;4.79;100.00;91030.38;2106959;28;20023;-82
2022/03/31 03:08:46;;;;;;;68.32;27.83;;;;;;;4.75;100.00;91035.78;2108632;28;20130;-81
2022/03/31 03:09:46;;;;;;;53.97;26.70;;;;;;;4.77;100.00;91027.41;2099163;28;20025;-83
2022/03/31 03:10:48;;;;;;;67.53;27.73;;;;;;;4.73;100.00;91032.09;2107037;28;20031;-81
2022/03/31 03:11:49;;;;;;;46.70;25.80;;;;;;;4.82;100.00;91029.50;2106027;28;20028;-81
2022/03/31 03:12:50;;;;;;;58.67;27.38;;;;;;;4.78;100.00;91032.28;2097052;28;20028;-81
2022/03/31 03:13:51;;;;;;;72.25;26.13;;;;;;;4.80;100.00;91031.84;2098262;28;20044;-83
2022/03/31 03:14:52;;;;;;;60.95;26.77;;;;;;;4.73;100.00;91029.44;2107081;28;20028;-81
2022/03/31 03:15:54;;;;;;;51.50;25.67;;;;;;;4.78;100.00;91019.06;2104437;28;20020;-81
2022/03/31 03:16:55;;;;;;;44.65;24.85;;;;;;;4.89;100.00;91025.88;2107302;28;20493;-82
2022/03/31 03:17:57;;;;;;;54.08;26.08;;;;;;;4.81;100.00;91033.31;2111624;28;20012;-81
2022/03/31 03:18:59;;;;;;;51.92;26.02;;;;;;;4.75;100.00;91029.75;2115451;28;20161;-83
2022/03/31 03:20:00;;;;;;;50.00;25.30;;;;;;;4.76;100.00;91025.94;2098986;28;20539;-82
2022/03/31 03:21:01;;;;;;;40.17;25.27;;;;;;;4.81;100.00;91020.09;2106777;28;20020;-81
2022/03/31 03:22:03;;;;;;;42.55;25.02;;;;;;;4.85;100.00;91025.28;2115738;28;20544;-81
2022/03/31 03:23:04;;;;;;;46.35;25.85;;;;;;;4.80;100.00;91016.72;2107163;28;20012;-82
2022/03/31 03:24:05;;;;;;;46.83;25.70;;;;;;;4.83;100.00;91022.31;2098219;28;20496;-83
2022/03/31 03:25:07;;;;;;;55.30;27.15;;;;;;;4.72;100.00;91018.13;2098789;28;20021;-81
2022/03/31 03:26:08;;;;;;;45.65;25.00;;;;;;;4.77;100.00;91014.19;2108065;28;20015;-81
2022/03/31 03:27:09;;;;;;;48.42;27.00;;;;;;;4.77;100.00;91012.28;2098556;28;20082;-84
2022/03/31 03:28:10;;;;;;;46.80;26.95;;;;;;;4.85;100.00;91012.03;2098783;28;20440;-81
2022/03/31 03:29:11;;;;;;;40.10;25.10;;;;;;;4.98;100.00;91010.06;2106878;28;20024;-84
2022/03/31 03:30:14;;;;;;;39.35;25.98;;;;;;;4.93;100.00;91011.34;2107242;27;20099;-81
2022/03/31 03:31:16;;;;;;;39.92;26.25;;;;;;;4.90;100.00;91014.13;2123498;27;20384;-82
2022/03/31 03:32:16;;;;;;;46.03;27.63;;;;;;;4.78;100.00;91008.47;2105887;28;20030;-82
2022/03/31 03:33:17;;;;;;;42.28;26.67;;;;;;;4.83;100.00;91009.84;2106892;28;20035;-82
2022/03/31 03:34:19;;;;;;;39.22;24.77;;;;;;;4.81;100.00;91009.50;2098461;28;20024;-82
2022/03/31 03:35:20;;;;;;;43.20;24.65;;;;;;;4.79;100.00;91009.22;2107062;28;20024;-81
2022/03/31 03:36:20;;;;;;;38.92;23.60;;;;;;;4.78;100.00;91010.34;2106769;28;20365;-82
2022/03/31 03:37:21;;;;;;;43.58;24.67;;;;;;;4.85;100.00;91015.41;2098335;28;20017;-82
2022/03/31 03:38:22;;;;;;;38.33;24.83;;;;;;;4.87;100.00;91007.03;2100188;28;20128;-81
2022/03/31 03:39:23;;;;;;;41.80;25.15;;;;;;;4.89;100.00;91008.09;2095371;28;20020;-81
2022/03/31 03:40:25;;;;;;;34.90;23.17;;;;;;;4.87;100.00;91014.97;2106900;28;20047;-81
2022/03/31 03:41:26;;;;;;;40.05;23.33;;;;;;;4.85;100.00;91020.72;2107167;28;20386;-82
2022/03/31 03:42:27;;;;;;;35.00;22.55;;;;;;;4.74;100.00;91010.50;2106707;28;20147;-81
2022/03/31 03:43:28;;;;;;;26.23;18.80;;;;;;;4.77;100.00;91011.53;2113654;28;20068;-82
2022/03/31 03:44:29;;;;;;;28.55;19.85;;;;;;;4.84;100.00;91018.50;2109981;28;20027;-83
2022/03/31 03:45:30;;;;;;;30.20;19.70;;;;;;;4.90;100.00;91016.78;2112782;28;20024;-83
2022/03/31 03:46:31;;;;;;;29.75;19.58;;;;;;;4.85;100.00;91015.41;2105962;28;20066;-80
2022/03/31 03:47:32;;;;;;;30.85;20.13;;;;;;;4.83;100.00;91017.78;2106495;28;20022;-81
2022/03/31 03:48:34;;;;;;;31.15;21.42;;;;;;;4.80;100.00;91014.06;2106341;28;20020;-83
2022/03/31 03:49:35;;;;;;;34.17;22.42;;;;;;;4.70;100.00;91015.19;2115275;28;20034;-81
2022/03/31 03:50:38;;;;;;;33.53;21.00;;;;;;;4.71;100.00;91014.00;2102521;28;20500;-82
2022/03/31 03:51:45;;;;;;;33.97;22.05;;;;;;;4.71;100.00;91011.34;2099150;28;20063;-81
2022/03/31 03:52:46;;;;;;;36.53;21.83;;;;;;;4.73;100.00;91013.56;2107877;27;20020;-81
2022/03/31 03:53:47;;;;;;;32.72;21.50;;;;;;;4.65;100.00;91014.97;2115297;27;20106;-82
2022/03/31 03:54:48;;;;;;;35.15;21.55;;;;;;;4.69;100.00;91016.31;2114389;28;20125;-84
2022/03/31 03:55:49;;;;;;;32.88;20.40;;;;;;;4.69;100.00;91011.03;2117059;27;20019;-81
2022/03/31 03:56:50;;;;;;;30.30;19.88;;;;;;;4.72;100.00;91004.88;2106878;28;20028;-82
2022/03/31 03:57:51;;;;;;;32.30;20.48;;;;;;;4.74;100.00;91007.84;2103140;28;20023;-81
2022/03/31 03:58:52;;;;;;;31.40;19.98;;;;;;;4.76;100.00;91004.78;2104228;28;20032;-82
2022/03/31 03:59:53;;;;;;;32.72;21.60;;;;;;;4.68;100.00;91006.19;2097230;28;20048;-81
2022/03/31 04:00:54;;;;;;;30.42;19.52;;;;;;;4.65;100.00;91007.75;2106660;28;20032;-83
2022/03/31 04:01:55;;;;;;;36.33;21.48;;;;;;;4.67;100.00;90999.41;2104289;28;20370;-83
2022/03/31 04:02:57;;;;;;;35.83;22.40;;;;;;;4.63;100.00;91004.81;2104889;28;20028;-82
2022/03/31 04:03:58;;;;;;;32.40;20.42;;;;;;;4.66;100.00;91006.63;2106432;28;20024;-81
2022/03/31 04:04:59;;;;;;;31.33;20.83;;;;;;;4.66;100.00;91003.22;2099203;28;20070;-83
2022/03/31 04:05:59;;;;;;;31.25;21.60;;;;;;;4.67;100.00;91002.06;2105777;28;20035;-83
2022/03/31 04:07:00;;;;;;;31.27;21.02;;;;;;;4.68;100.00;91000.88;2097997;28;20028;-82
2022/03/31 04:08:02;;;;;;;30.88;19.58;;;;;;;4.73;100.00;91006.34;2106038;28;20488;-82
2022/03/31 04:09:03;;;;;;;29.58;19.35;;;;;;;4.73;100.00;91005.63;2106737;28;20484;-82
2022/03/31 04:10:04;;;;;;;28.05;21.08;;;;;;;4.68;100.00;91003.53;2106840;28;20028;-81
2022/03/31 04:11:05;;;;;;;31.75;19.95;;;;;;;4.66;100.00;91000.59;2114045;27;20180;-81
2022/03/31 04:12:07;;;;;;;32.63;20.10;;;;;;;4.66;100.00;91005.88;2105202;28;20493;-82
2022/03/31 04:13:08;;;;;;;28.90;19.17;;;;;;;4.70;100.00;91009.88;2114741;28;20468;-83
2022/03/31 04:14:08;;;;;;;33.17;20.42;;;;;;;4.80;100.00;91002.75;2106260;28;20027;-82
2022/03/31 04:15:10;;;;;;;32.45;18.33;;;;;;;4.73;100.00;90998.41;2097619;28;20028;-84
2022/03/31 04:16:11;;;;;;;31.95;20.98;;;;;;;4.74;100.00;91005.22;2097718;28;20017;-81
2022/03/31 04:17:12;;;;;;;32.08;20.27;;;;;;;4.67;100.00;91000.16;2106465;28;20031;-80
2022/03/31 04:18:13;;;;;;;28.42;19.13;;;;;;;4.67;100.00;90999.41;2113888;28;20015;-81
2022/03/31 04:19:14;;;;;;;33.42;21.38;;;;;;;4.72;100.00;91001.50;2114285;28;20074;-80
2022/03/31 04:20:16;;;;;;;31.23;21.52;;;;;;;4.66;100.00;91003.97;2105214;28;20056;-83
2022/03/31 04:21:17;;;;;;;33.13;21.10;;;;;;;4.65;100.00;90997.19;2113124;28;20393;-83
2022/03/31 04:22:18;;;;;;;33.10;20.75;;;;;;;4.73;100.00;90997.69;2103192;28;20150;-80
2022/03/31 04:23:19;;;;;;;27.58;20.17;;;;;;;4.73;100.00;91000.31;2109070;28;20416;-81
2022/03/31 04:24:20;;;;;;;30.33;19.67;;;;;;;4.74;100.00;90999.16;2097784;28;20035;-81
2022/03/31 04:25:21;;;;;;;28.70;19.45;;;;;;;4.74;100.00;90994.63;2103299;28;20074;-81
2022/03/31 04:26:22;;;;;;;27.23;18.70;;;;;;;4.86;100.00;90994.97;2114364;28;20019;-81
2022/03/31 04:27:23;;;;;;;31.92;18.73;;;;;;;4.97;100.00;91001.38;2106400;28;20023;-81
2022/03/31 04:28:26;;;;;;;28.75;18.48;;;;;;;4.89;100.00;91000.16;2114912;28;20389;-81
2022/03/31 04:29:27;;;;;;;27.23;18.17;;;;;;;4.88;100.00;91000.59;2121056;27;20098;-81
2022/03/31 04:30:28;;;;;;;28.98;18.52;;;;;;;4.86;100.00;90994.97;2115147;27;20034;-82
2022/03/31 04:31:30;;;;;;;28.85;19.00;;;;;;;4.80;100.00;90994.81;2096527;28;20050;-83
2022/03/31 04:32:37;;;;;;;27.10;18.38;;;;;;;4.72;100.00;90990.91;2096856;28;20028;-80
2022/03/31 04:33:38;;;;;;;30.23;19.40;;;;;;;4.79;100.00;90990.69;2099060;28;20063;-82
2022/03/31 04:34:39;;;;;;;31.45;18.80;;;;;;;4.78;100.00;90989.19;2097933;28;20028;-81
2022/03/31 04:35:40;;;;;;;26.42;18.52;;;;;;;4.72;100.00;90991.66;2095803;28;20845;-81
2022/03/31 04:36:42;;;;;;;29.92;18.60;;;;;;;4.65;100.00;90986.59;2096068;28;20032;-82
2022/03/31 04:37:44;;;;;;;32.40;19.75;;;;;;;4.68;100.00;90990.31;2106364;28;20674;-82
2022/03/31 04:38:45;;;;;;;30.42;20.35;;;;;;;4.71;100.00;90987.53;2106378;28;20499;-81
2022/03/31 04:39:46;;;;;;;33.05;18.92;;;;;;;4.72;100.00;90988.28;2103400;28;20024;-81
2022/03/31 04:40:47;;;;;;;28.33;18.85;;;;;;;4.63;100.00;90990.84;2106560;28;20031;-82
2022/03/31 04:41:48;;;;;;;30.08;19.67;;;;;;;4.68;100.00;90985.75;2114922;28;20023;-83
2022/03/31 04:42:49;;;;;;;29.63;18.23;;;;;;;4.69;100.00;90983.84;2113083;28;20504;-83
2022/03/31 04:43:51;;;;;;;29.02;18.85;;;;;;;4.71;100.00;90984.91;2103201;28;20036;-82
2022/03/31 04:44:52;;;;;;;27.73;19.65;;;;;;;4.69;100.00;90991.78;2098447;28;20037;-81
2022/03/31 04:45:53;;;;;;;28.48;18.90;;;;;;;4.68;100.00;90993.69;2106373;28;20475;-81
2022/03/31 04:46:54;;;;;;;31.70;21.58;;;;;;;4.59;100.00;90992.88;2109693;28;20501;-82
2022/03/31 04:47:55;;;;;;;32.17;21.13;;;;;;;4.57;100.00;90992.59;2120401;27;20131;-82